Time;durP1;ratioP1;P1;durP2;ratioP2;P2;SDS_P1;SDS_P2;PMS_P1;PMS_P2;Temp;Humidity;BMP_temperature;BMP_pressure;BME280_temperature;BME280_humidity;BME280_pressure;Samples;Min_cycle;Max_cycle;Signal;HPM_P1;HPM_P2
2024/03/27 00:02:24;;;;;;;33.13;19.20;;;6.60;99.90;;;;;;4981189;28;20054;-89
2024/03/27 00:04:50;;;;;;;31.13;16.35;;;6.60;99.90;;;;;;4999014;28;20026;-87
2024/03/27 00:07:15;;;;;;;29.70;16.23;;;6.60;99.90;;;;;;4976808;28;20054;-90
2024/03/27 00:09:41;;;;;;;28.52;15.00;;;6.60;99.90;;;;;;4979830;28;20018;-90
2024/03/27 00:12:07;;;;;;;32.28;15.43;;;6.60;99.90;;;;;;4965911;28;20030;-92
2024/03/27 00:14:32;;;;;;;29.65;16.80;;;6.60;99.90;;;;;;4962940;28;20033;-90
2024/03/27 00:16:58;;;;;;;34.85;17.00;;;6.60;99.90;;;;;;4964926;28;20023;-91
2024/03/27 00:19:24;;;;;;;30.98;15.68;;;6.60;99.90;;;;;;4963093;28;20121;-92
2024/03/27 00:21:50;;;;;;;31.42;15.70;;;6.60;99.90;;;;;;4982489;28;20026;-91
2024/03/27 00:24:16;;;;;;;35.40;15.25;;;6.60;99.90;;;;;;4984836;28;20039;-91
2024/03/27 00:26:41;;;;;;;24.95;13.85;;;6.60;99.90;;;;;;4963611;28;20516;-91
2024/03/27 00:29:08;;;;;;;29.30;15.27;;;6.50;99.90;;;;;;4961962;28;20025;-94
2024/03/27 00:31:33;;;;;;;34.22;14.77;;;6.50;99.90;;;;;;4961929;28;20121;-90
2024/03/27 00:33:59;;;;;;;26.15;13.40;;;6.50;99.90;;;;;;4979593;28;20519;-91
2024/03/27 00:36:25;;;;;;;32.10;13.90;;;6.50;99.90;;;;;;4962765;28;20396;-92
2024/03/27 00:38:50;;;;;;;25.80;13.38;;;6.50;99.90;;;;;;4965662;28;20018;-91
2024/03/27 00:41:16;;;;;;;28.77;13.98;;;6.50;99.90;;;;;;4964615;28;20034;-91
2024/03/27 00:43:42;;;;;;;25.60;13.77;;;6.50;99.90;;;;;;4965524;28;20038;-92
2024/03/27 00:46:07;;;;;;;31.00;15.27;;;6.50;99.90;;;;;;4964908;28;20059;-92
2024/03/27 00:48:33;;;;;;;34.35;16.38;;;6.60;99.90;;;;;;4965425;28;20035;-92
2024/03/27 00:50:59;;;;;;;31.35;16.95;;;6.60;99.90;;;;;;4964418;28;20035;-93
2024/03/27 00:53:26;;;;;;;31.35;17.60;;;6.70;99.90;;;;;;4964515;28;20050;-92
2024/03/27 00:55:56;;;;;;;38.97;17.52;;;6.70;99.90;;;;;;4963314;28;20030;-94
2024/03/27 00:58:22;;;;;;;24.90;13.93;;;6.80;99.90;;;;;;4962714;28;20038;-92
2024/03/27 01:00:48;;;;;;;34.17;15.35;;;6.70;99.90;;;;;;4962400;28;20026;-91
2024/03/27 01:03:15;;;;;;;30.00;15.15;;;6.70;99.90;;;;;;4961611;28;20034;-91
2024/03/27 01:05:41;;;;;;;32.22;15.75;;;6.70;99.90;;;;;;4962078;28;20035;-91
2024/03/27 01:08:06;;;;;;;27.48;15.85;;;6.60;99.90;;;;;;4978275;28;20488;-92
2024/03/27 01:10:34;;;;;;;31.25;15.93;;;6.60;99.90;;;;;;4961186;28;20029;-92
2024/03/27 01:13:00;;;;;;;32.35;16.30;;;6.60;99.90;;;;;;4961215;28;20027;-91
2024/03/27 01:15:25;;;;;;;28.55;15.88;;;6.60;99.90;;;;;;4960230;28;20583;-91
2024/03/27 01:17:51;;;;;;;28.83;15.55;;;6.60;99.90;;;;;;4960032;28;20062;-90
2024/03/27 01:20:17;;;;;;;27.00;15.57;;;6.60;99.90;;;;;;4959665;28;20039;-90
2024/03/27 01:22:43;;;;;;;29.33;15.98;;;6.60;99.90;;;;;;4959845;28;20274;-92
2024/03/27 01:25:09;;;;;;;29.27;15.70;;;6.60;99.90;;;;;;4960794;28;20062;-93
2024/03/27 01:27:35;;;;;;;28.63;15.18;;;6.60;99.90;;;;;;4966191;28;20023;-92
2024/03/27 01:30:01;;;;;;;27.95;15.30;;;6.60;99.90;;;;;;4966197;28;20042;-92
2024/03/27 01:32:26;;;;;;;30.88;14.93;;;6.60;99.90;;;;;;4965526;28;20046;-92
2024/03/27 01:34:52;;;;;;;27.48;14.90;;;6.60;99.90;;;;;;4962690;28;20023;-92
2024/03/27 01:37:19;;;;;;;26.40;14.50;;;6.60;99.90;;;;;;4960218;28;20054;-89
2024/03/27 01:39:45;;;;;;;27.92;12.65;;;6.60;99.90;;;;;;4959345;28;20484;-93
2024/03/27 01:42:10;;;;;;;22.40;12.50;;;6.50;99.90;;;;;;4959645;28;20027;-92
2024/03/27 01:44:36;;;;;;;20.20;11.35;;;6.50;99.90;;;;;;4960317;28;20026;-93
2024/03/27 01:47:02;;;;;;;26.55;12.18;;;6.50;99.90;;;;;;4959801;28;20026;-90
2024/03/27 01:49:31;;;;;;;24.40;11.38;;;6.40;99.90;;;;;;4959421;28;20481;-93
2024/03/27 01:51:58;;;;;;;22.60;12.23;;;6.50;99.90;;;;;;4975671;28;20125;-93
2024/03/27 01:54:25;;;;;;;21.85;11.32;;;6.40;99.90;;;;;;4976191;28;20035;-93
2024/03/27 01:56:52;;;;;;;18.48;10.27;;;6.40;99.90;;;;;;4958924;28;20027;-92
2024/03/27 01:59:21;;;;;;;20.30;10.40;;;6.40;99.90;;;;;;4958970;28;20378;-92
2024/03/27 02:01:48;;;;;;;19.85;10.73;;;6.40;99.90;;;;;;4957994;28;20097;-92
2024/03/27 02:04:14;;;;;;;18.23;9.13;;;6.30;99.90;;;;;;4957857;28;20035;-91
2024/03/27 02:06:40;;;;;;;14.48;7.78;;;6.30;99.90;;;;;;4957189;28;20019;-92
2024/03/27 02:09:06;;;;;;;14.60;7.60;;;6.30;99.90;;;;;;4958298;28;20503;-91
2024/03/27 02:11:32;;;;;;;13.05;7.00;;;6.30;99.90;;;;;;4975150;28;20422;-90
2024/03/27 02:13:58;;;;;;;14.20;8.05;;;6.30;99.90;;;;;;4958313;28;20027;-91
2024/03/27 02:16:24;;;;;;;13.93;7.47;;;6.20;99.90;;;;;;4974990;28;20050;-92
2024/03/27 02:18:50;;;;;;;17.55;8.25;;;6.20;99.90;;;;;;4975266;28;20033;-90
2024/03/27 02:21:15;;;;;;;12.35;6.93;;;6.20;99.90;;;;;;4958311;28;20163;-91
2024/03/27 02:23:56;;;;;;;13.95;7.18;;;6.20;99.90;;;;;;4958482;28;20056;-91
2024/03/27 02:26:34;;;;;;;13.50;6.70;;;6.20;99.90;;;;;;4958489;28;20065;-92
2024/03/27 02:28:59;;;;;;;14.30;6.75;;;6.20;99.90;;;;;;4975319;28;20027;-91
2024/03/27 02:31:25;;;;;;;12.75;6.88;;;6.20;99.90;;;;;;4959523;28;20022;-91
2024/03/27 02:33:50;;;;;;;15.32;6.85;;;6.20;99.90;;;;;;4977866;28;20027;-92
2024/03/27 02:36:16;;;;;;;14.98;8.00;;;6.20;99.90;;;;;;4966242;28;20042;-88
2024/03/27 02:38:42;;;;;;;14.73;7.85;;;6.10;99.90;;;;;;4996001;28;20030;-88
2024/03/27 02:41:07;;;;;;;13.75;7.10;;;6.10;99.90;;;;;;4993336;28;20019;-90
2024/03/27 02:43:33;;;;;;;13.00;7.20;;;6.20;99.90;;;;;;4976539;28;20452;-89
2024/03/27 02:45:59;;;;;;;10.00;6.13;;;6.20;99.90;;;;;;4957872;28;20528;-91
2024/03/27 02:48:24;;;;;;;10.60;5.60;;;6.20;99.90;;;;;;4957914;28;20027;-91
2024/03/27 02:50:50;;;;;;;9.32;5.65;;;6.10;99.90;;;;;;4974706;28;20378;-90
2024/03/27 02:53:16;;;;;;;9.45;5.82;;;6.20;99.90;;;;;;4974932;28;20059;-90
2024/03/27 02:55:41;;;;;;;11.63;5.85;;;6.20;99.90;;;;;;4974907;28;20026;-89
2024/03/27 02:58:07;;;;;;;10.75;6.15;;;6.20;99.90;;;;;;4957276;28;20035;-91
2024/03/27 03:00:33;;;;;;;11.48;6.90;;;6.10;99.90;;;;;;4957609;28;20069;-91
2024/03/27 03:02:58;;;;;;;13.52;6.97;;;6.10;99.90;;;;;;4957094;28;20058;-90
2024/03/27 03:05:25;;;;;;;16.33;7.47;;;6.10;99.90;;;;;;4957694;28;20023;-90
2024/03/27 03:07:51;;;;;;;14.27;7.05;;;6.10;99.90;;;;;;4957201;28;20089;-92
2024/03/27 03:10:17;;;;;;;14.85;6.72;;;6.10;99.90;;;;;;4957726;28;20031;-90
2024/03/27 03:12:43;;;;;;;14.00;7.18;;;6.10;99.90;;;;;;4956876;28;20266;-89
2024/03/27 03:15:09;;;;;;;12.50;7.43;;;6.10;99.90;;;;;;4957394;28;20489;-92
2024/03/27 03:17:35;;;;;;;14.32;7.97;;;6.10;99.90;;;;;;4958316;28;20026;-91
2024/03/27 03:20:04;;;;;;;14.75;7.85;;;6.10;99.90;;;;;;4960972;28;20031;-91
2024/03/27 03:22:30;;;;;;;13.77;7.07;;;6.10;99.90;;;;;;4961067;28;20109;-90
2024/03/27 03:24:55;;;;;;;10.57;6.13;;;6.10;99.90;;;;;;4961194;28;20488;-89
2024/03/27 03:27:21;;;;;;;15.35;8.65;;;6.10;99.90;;;;;;4961167;28;20047;-91
2024/03/27 03:29:47;;;;;;;13.90;6.30;;;6.10;99.90;;;;;;4960545;28;20050;-90
2024/03/27 03:32:12;;;;;;;10.63;5.40;;;6.10;99.90;;;;;;4960015;28;20027;-90
2024/03/27 03:34:38;;;;;;;8.15;4.57;;;6.00;99.90;;;;;;4960477;28;20031;-90
2024/03/27 03:37:04;;;;;;;6.28;3.33;;;6.00;99.90;;;;;;4960086;28;20038;-90
2024/03/27 03:39:29;;;;;;;3.92;2.50;;;6.00;99.90;;;;;;4960709;28;20027;-91
2024/03/27 03:41:55;;;;;;;3.17;1.90;;;6.00;99.90;;;;;;4960713;28;20039;-93
2024/03/27 03:44:21;;;;;;;3.05;2.30;;;5.90;99.90;;;;;;4962961;28;20039;-92
2024/03/27 03:46:46;;;;;;;4.70;2.17;;;5.90;99.90;;;;;;4963371;28;20085;-92
2024/03/27 03:49:12;;;;;;;6.38;2.47;;;5.90;99.90;;;;;;4962797;28;20027;-91
2024/03/27 03:51:37;;;;;;;7.85;2.17;;;5.80;99.90;;;;;;4963168;28;20049;-93
2024/03/27 03:54:05;;;;;;;6.00;2.45;;;5.80;99.90;;;;;;4960890;28;20050;-92
2024/03/27 03:56:31;;;;;;;5.05;2.40;;;5.70;99.90;;;;;;4960302;28;20027;-90
2024/03/27 03:58:56;;;;;;;3.10;1.88;;;5.70;99.90;;;;;;4960622;28;20484;-93
2024/03/27 04:01:22;;;;;;;4.82;2.22;;;5.70;99.90;;;;;;4960842;28;20143;-91
2024/03/27 04:03:48;;;;;;;3.08;1.90;;;5.60;99.90;;;;;;4960377;28;20035;-92
2024/03/27 04:06:14;;;;;;;2.78;1.80;;;5.60;99.90;;;;;;4960598;28;20066;-91
2024/03/27 04:08:40;;;;;;;3.40;1.65;;;5.60;99.90;;;;;;4959817;28;20074;-90
2024/03/27 04:11:05;;;;;;;3.50;1.70;;;5.60;99.90;;;;;;4959785;28;20112;-91
2024/03/27 04:13:31;;;;;;;2.20;1.52;;;5.60;99.90;;;;;;4959549;28;20027;-93
2024/03/27 04:15:57;;;;;;;4.70;1.90;;;5.60;99.90;;;;;;4959348;28;20125;-92
2024/03/27 04:18:22;;;;;;;1.88;1.17;;;5.60;99.90;;;;;;4960172;28;20027;-90
2024/03/27 04:20:48;;;;;;;3.53;1.45;;;5.60;99.90;;;;;;4960678;28;20027;-92
2024/03/27 04:23:13;;;;;;;3.80;1.38;;;5.50;99.90;;;;;;4959776;28;20043;-92
2024/03/27 04:25:47;;;;;;;1.92;1.30;;;5.50;99.90;;;;;;4960229;28;20029;-92
2024/03/27 04:28:13;;;;;;;4.18;1.17;;;5.50;99.90;;;;;;4960654;28;20033;-91
2024/03/27 04:30:38;;;;;;;2.03;1.00;;;5.50;99.90;;;;;;4961018;28;20023;-91
2024/03/27 04:33:04;;;;;;;1.48;1.00;;;5.60;99.90;;;;;;4962694;28;20023;-91
2024/03/27 04:35:30;;;;;;;2.78;1.50;;;5.50;99.90;;;;;;4962473;28;20034;-91
2024/03/27 04:37:55;;;;;;;1.42;0.88;;;5.50;99.90;;;;;;4960702;28;20077;-90
2024/03/27 04:40:21;;;;;;;0.98;0.63;;;5.50;99.90;;;;;;4960225;28;20042;-90
2024/03/27 04:42:47;;;;;;;1.23;0.85;;;5.50;99.90;;;;;;4976590;28;20103;-90
2024/03/27 04:45:12;;;;;;;0.63;0.63;;;5.50;99.90;;;;;;4959452;28;20061;-92
2024/03/27 04:47:38;;;;;;;2.42;1.00;;;5.50;99.90;;;;;;4976688;28;20373;-91
2024/03/27 04:50:04;;;;;;;1.92;1.10;;;5.50;99.90;;;;;;4958235;28;20070;-90
2024/03/27 04:52:31;;;;;;;1.25;0.85;;;5.60;99.90;;;;;;4959407;28;20488;-91
2024/03/27 04:54:57;;;;;;;0.80;0.80;;;5.60;99.90;;;;;;4959704;28;20039;-90
2024/03/27 04:57:22;;;;;;;1.42;1.00;;;5.60;99.90;;;;;;4979030;28;20034;-89
2024/03/27 04:59:48;;;;;;;1.38;0.63;;;5.60;99.90;;;;;;4962619;28;20050;-90
2024/03/27 05:02:14;;;;;;;1.88;0.68;;;5.60;99.90;;;;;;4962456;28;20027;-91
2024/03/27 05:04:39;;;;;;;3.58;0.82;;;5.60;99.90;;;;;;4976525;28;20100;-90
2024/03/27 05:07:05;;;;;;;0.90;0.73;;;5.60;99.90;;;;;;4958967;28;20027;-90
2024/03/27 05:09:31;;;;;;;1.50;0.82;;;5.60;99.90;;;;;;4957901;28;20117;-91
2024/03/27 05:12:01;;;;;;;0.93;0.90;;;5.60;99.90;;;;;;4957427;28;20030;-90
2024/03/27 05:14:29;;;;;;;1.35;1.00;;;5.60;99.90;;;;;;4974498;28;20030;-91
2024/03/27 05:16:55;;;;;;;1.02;0.90;;;5.60;99.90;;;;;;4978020;28;20026;-91
2024/03/27 05:19:20;;;;;;;1.48;1.05;;;5.60;99.90;;;;;;4977789;28;20089;-91
2024/03/27 05:21:46;;;;;;;1.42;1.02;;;5.50;99.90;;;;;;4978139;28;20030;-92
2024/03/27 05:24:12;;;;;;;1.77;1.30;;;5.50;99.90;;;;;;4977611;28;20400;-90
2024/03/27 05:26:38;;;;;;;1.08;0.98;;;5.50;99.90;;;;;;4977724;28;20025;-90
2024/03/27 05:29:04;;;;;;;2.65;1.05;;;5.50;99.90;;;;;;4977522;28;20035;-90
2024/03/27 05:31:30;;;;;;;1.55;1.05;;;5.50;99.90;;;;;;4977470;28;20022;-90
2024/03/27 05:33:56;;;;;;;1.05;0.95;;;5.50;99.90;;;;;;4977881;28;20030;-91
2024/03/27 05:36:22;;;;;;;2.72;1.15;;;5.50;99.90;;;;;;4977459;28;20396;-91
2024/03/27 05:38:48;;;;;;;1.35;1.00;;;5.50;99.90;;;;;;4979981;28;20026;-90
2024/03/27 05:41:13;;;;;;;2.03;1.30;;;5.50;99.90;;;;;;4978063;28;20432;-91
2024/03/27 05:43:39;;;;;;;2.10;1.20;;;5.60;99.90;;;;;;4977053;28;20069;-89
2024/03/27 05:46:05;;;;;;;2.13;0.98;;;5.60;99.90;;;;;;4977399;28;20026;-90
2024/03/27 05:48:32;;;;;;;3.45;1.38;;;5.60;99.90;;;;;;4977293;28;20384;-92
2024/03/27 05:50:58;;;;;;;2.55;1.60;;;5.50;99.90;;;;;;4978477;28;20085;-90
2024/03/27 05:53:23;;;;;;;2.83;1.23;;;5.50;99.90;;;;;;4977053;28;20457;-91
2024/03/27 05:55:59;;;;;;;3.58;1.30;;;5.50;99.90;;;;;;4976900;28;20117;-91
2024/03/27 05:58:26;;;;;;;4.18;1.58;;;5.50;99.90;;;;;;4994732;28;20026;-91
2024/03/27 06:00:51;;;;;;;3.05;1.30;;;5.50;99.90;;;;;;4977308;28;20622;-91
2024/03/27 06:03:17;;;;;;;1.45;1.33;;;5.50;99.90;;;;;;4977285;28;20054;-91
2024/03/27 06:05:43;;;;;;;2.15;1.20;;;5.50;99.90;;;;;;4976764;28;20126;-90
2024/03/27 06:08:10;;;;;;;2.15;1.30;;;5.50;99.90;;;;;;4957499;28;20113;-92
2024/03/27 06:10:35;;;;;;;1.98;1.17;;;5.50;99.90;;;;;;4957933;28;20058;-92
2024/03/27 06:13:06;;;;;;;2.15;1.20;;;5.50;99.90;;;;;;4957931;28;20036;-91
2024/03/27 06:15:32;;;;;;;2.10;1.40;;;5.50;99.90;;;;;;4957583;28;20086;-91
2024/03/27 06:18:00;;;;;;;1.80;1.20;;;5.50;99.90;;;;;;4957857;28;20468;-93
2024/03/27 06:20:26;;;;;;;4.05;2.35;;;5.60;99.90;;;;;;4957710;28;20034;-91
2024/03/27 06:22:52;;;;;;;3.20;1.90;;;5.50;99.90;;;;;;4956862;28;20054;-91
2024/03/27 06:25:18;;;;;;;4.80;2.67;;;5.40;99.90;;;;;;4956903;28;20030;-90
2024/03/27 06:27:44;;;;;;;5.53;2.15;;;5.50;99.90;;;;;;4960014;28;20031;-92
2024/03/27 06:30:12;;;;;;;2.67;2.10;;;5.40;99.90;;;;;;4959823;28;20030;-89
2024/03/27 06:32:39;;;;;;;4.65;2.40;;;5.40;99.90;;;;;;4974936;28;20023;-91
2024/03/27 06:35:06;;;;;;;3.25;2.42;;;5.40;99.90;;;;;;4975145;28;20030;-92
2024/03/27 06:37:32;;;;;;;6.50;2.58;;;5.30;99.90;;;;;;4957148;28;20035;-92
2024/03/27 06:39:59;;;;;;;3.55;2.83;;;5.30;99.90;;;;;;4957548;28;20043;-91
2024/03/27 06:42:24;;;;;;;6.75;4.25;;;5.30;99.90;;;;;;4956930;28;20031;-91
2024/03/27 06:44:50;;;;;;;5.55;3.95;;;5.30;99.90;;;;;;4957745;28;20062;-91
2024/03/27 06:47:19;;;;;;;8.90;4.40;;;5.30;99.90;;;;;;4956833;28;20051;-91
2024/03/27 06:49:48;;;;;;;8.75;5.60;;;5.30;99.90;;;;;;4957084;28;20034;-93
2024/03/27 06:52:14;;;;;;;9.98;5.65;;;5.30;99.90;;;;;;4959794;28;20077;-91
2024/03/27 06:54:40;;;;;;;6.63;4.65;;;5.30;99.90;;;;;;4966507;28;20033;-91
2024/03/27 06:57:05;;;;;;;9.02;6.22;;;5.40;99.90;;;;;;4965951;28;20121;-91
2024/03/27 06:59:31;;;;;;;10.32;6.57;;;5.40;99.90;;;;;;4964854;28;20439;-91
2024/03/27 07:01:57;;;;;;;12.85;6.28;;;5.50;99.90;;;;;;4962458;28;20027;-92
2024/03/27 07:04:23;;;;;;;10.88;6.38;;;5.50;99.90;;;;;;4961088;28;20038;-91
2024/03/27 07:06:48;;;;;;;13.55;6.65;;;5.60;99.90;;;;;;4961182;28;20362;-91
2024/03/27 07:09:14;;;;;;;10.02;5.75;;;5.70;99.90;;;;;;4960312;28;20039;-91
2024/03/27 07:11:40;;;;;;;8.48;5.03;;;5.70;99.90;;;;;;4961010;28;20066;-92
2024/03/27 07:14:06;;;;;;;7.80;4.75;;;5.80;99.90;;;;;;4961080;28;20022;-90
2024/03/27 07:16:31;;;;;;;7.35;4.60;;;5.90;99.90;;;;;;4960725;28;20743;-90
2024/03/27 07:18:57;;;;;;;8.30;4.70;;;5.90;99.90;;;;;;4960244;28;20022;-91
2024/03/27 07:21:22;;;;;;;9.02;4.13;;;6.00;99.90;;;;;;4959247;28;20089;-92
2024/03/27 07:23:48;;;;;;;8.93;3.65;;;6.00;99.90;;;;;;4957375;28;20114;-89
2024/03/27 07:26:14;;;;;;;7.30;3.72;;;6.00;99.90;;;;;;4962036;28;20049;-92
2024/03/27 07:28:39;;;;;;;8.55;3.67;;;6.10;99.90;;;;;;4960488;28;20050;-92
2024/03/27 07:31:05;;;;;;;9.93;3.28;;;6.20;99.90;;;;;;4960304;28;20034;-90
2024/03/27 07:33:31;;;;;;;9.07;3.10;;;6.20;99.90;;;;;;4993540;28;20105;-92
2024/03/27 07:35:57;;;;;;;7.07;3.42;;;6.30;99.90;;;;;;4979874;28;20019;-92
2024/03/27 07:38:23;;;;;;;11.68;2.88;;;6.30;99.90;;;;;;4962536;28;20027;-91
2024/03/27 07:40:49;;;;;;;10.25;3.00;;;6.30;99.90;;;;;;4980035;28;20030;-92
2024/03/27 07:43:15;;;;;;;6.60;3.40;;;6.40;99.90;;;;;;4964420;28;20444;-92
2024/03/27 07:45:41;;;;;;;13.77;2.97;;;6.40;99.90;;;;;;4963609;28;20114;-90
2024/03/27 07:48:08;;;;;;;12.38;3.65;;;6.50;99.90;;;;;;4960909;28;20113;-92
2024/03/27 07:50:35;;;;;;;11.60;3.67;;;6.50;99.90;;;;;;4962144;28;20030;-91
2024/03/27 07:53:00;;;;;;;10.52;2.83;;;6.60;99.90;;;;;;4991684;28;20134;-91
2024/03/27 07:55:26;;;;;;;8.57;2.47;;;6.60;99.90;;;;;;4959632;28;20058;-89
2024/03/27 07:57:52;;;;;;;8.18;2.35;;;6.70;99.90;;;;;;4966629;28;20023;-90
2024/03/27 08:00:18;;;;;;;10.95;2.22;;;6.80;99.90;;;;;;4965918;28;20039;-91
2024/03/27 08:02:44;;;;;;;9.90;2.20;;;6.80;99.90;;;;;;4965288;28;20045;-90
2024/03/27 08:05:09;;;;;;;10.55;2.03;;;6.90;99.90;;;;;;4963265;28;20042;-91
2024/03/27 08:07:36;;;;;;;9.88;1.90;;;7.00;99.90;;;;;;4960926;28;20030;-91
2024/03/27 08:10:03;;;;;;;10.45;1.88;;;7.10;99.90;;;;;;4976432;28;20019;-92
2024/03/27 08:12:29;;;;;;;8.55;1.67;;;7.10;99.90;;;;;;4959295;28;20019;-89
2024/03/27 08:14:55;;;;;;;6.20;1.90;;;7.20;99.90;;;;;;4957211;28;20027;-92
2024/03/27 08:17:21;;;;;;;9.23;2.03;;;7.20;99.90;;;;;;4958832;28;20078;-91
2024/03/27 08:19:47;;;;;;;9.48;1.58;;;7.20;99.90;;;;;;4959292;28;20086;-91
2024/03/27 08:22:12;;;;;;;3.65;1.48;;;7.20;99.90;;;;;;4959626;28;20035;-91
2024/03/27 08:24:38;;;;;;;6.43;1.38;;;7.20;99.90;;;;;;4959642;28;20103;-90
2024/03/27 08:27:05;;;;;;;3.78;1.25;;;7.20;99.90;;;;;;4976577;28;20027;-90
2024/03/27 08:29:31;;;;;;;7.78;1.50;;;7.20;99.90;;;;;;4959219;28;20031;-90
2024/03/27 08:32:00;;;;;;;7.82;1.33;;;7.20;99.90;;;;;;4975334;28;20027;-92
2024/03/27 08:34:27;;;;;;;6.10;1.30;;;7.30;99.90;;;;;;4959639;28;20018;-91
2024/03/27 08:36:54;;;;;;;7.13;1.27;;;7.30;99.90;;;;;;4959385;28;20019;-93
2024/03/27 08:39:21;;;;;;;8.43;1.35;;;7.30;99.90;;;;;;4977269;28;20018;-91
2024/03/27 08:41:48;;;;;;;9.68;3.25;;;7.40;99.90;;;;;;4977075;28;20029;-94
2024/03/27 08:44:16;;;;;;;5.57;1.13;;;7.40;99.90;;;;;;4976648;28;20517;-93
2024/03/27 08:46:42;;;;;;;8.15;1.50;;;7.40;99.90;;;;;;4959296;28;20078;-92
2024/03/27 08:49:37;;;;;;;10.27;1.33;;;7.40;99.90;;;;;;4961064;28;20041;-90
2024/03/27 08:52:03;;;;;;;9.85;1.88;;;7.40;99.90;;;;;;4974075;28;20105;-91
2024/03/27 08:54:28;;;;;;;10.60;1.60;;;7.50;99.90;;;;;;4958484;28;20039;-90
2024/03/27 08:56:54;;;;;;;9.70;1.67;;;7.50;99.90;;;;;;4975661;28;20086;-91
2024/03/27 08:59:20;;;;;;;9.43;1.83;;;7.60;99.90;;;;;;4963779;28;20026;-91
2024/03/27 09:01:45;;;;;;;8.18;1.38;;;7.70;99.90;;;;;;4966056;28;20033;-91
2024/03/27 09:04:11;;;;;;;9.77;1.23;;;7.70;99.90;;;;;;4958497;28;20122;-90
2024/03/27 09:06:37;;;;;;;8.60;2.92;;;7.70;99.90;;;;;;4976324;28;20038;-91
2024/03/27 09:09:04;;;;;;;4.07;1.55;;;7.70;99.90;;;;;;4953243;28;20122;-88
2024/03/27 09:11:30;;;;;;;6.60;1.10;;;7.80;99.90;;;;;;4963081;28;20050;-90
2024/03/27 09:13:56;;;;;;;13.63;1.85;;;7.80;99.90;;;;;;4963610;28;20051;-90
2024/03/27 09:16:21;;;;;;;12.02;1.23;;;7.80;99.90;;;;;;4974007;28;20027;-91
2024/03/27 09:18:47;;;;;;;9.55;1.73;;;7.90;99.90;;;;;;4961558;28;20026;-92
2024/03/27 09:21:13;;;;;;;5.82;1.45;;;7.90;99.90;;;;;;4962727;28;20220;-95
2024/03/27 09:23:39;;;;;;;7.38;1.30;;;7.90;99.90;;;;;;4963820;28;20063;-92
2024/03/27 09:26:05;;;;;;;4.15;1.10;;;8.00;99.90;;;;;;4962352;28;20042;-90
2024/03/27 09:28:30;;;;;;;5.78;1.25;;;8.10;99.90;;;;;;4963288;28;20050;-92
2024/03/27 09:31:01;;;;;;;5.05;1.30;;;8.30;99.90;;;;;;4965078;28;20098;-92
2024/03/27 09:33:27;;;;;;;12.40;1.70;;;8.40;99.90;;;;;;4964801;28;20034;-93
2024/03/27 09:35:53;;;;;;;5.20;1.35;;;8.40;99.90;;;;;;4965165;28;20027;-93
2024/03/27 09:38:19;;;;;;;4.80;0.90;;;8.50;99.90;;;;;;4962840;28;20417;-92
2024/03/27 09:40:48;;;;;;;7.93;2.03;;;8.60;99.90;;;;;;4973706;28;20022;-91
2024/03/27 09:43:16;;;;;;;8.57;1.20;;;8.60;99.90;;;;;;4965677;28;20134;-94
2024/03/27 09:45:45;;;;;;;5.75;1.33;;;8.60;99.90;;;;;;4964416;28;20027;-92
2024/03/27 09:48:13;;;;;;;8.20;1.35;;;8.70;99.90;;;;;;4962267;28;20015;-92
2024/03/27 09:50:39;;;;;;;11.50;1.15;;;8.70;99.90;;;;;;4964638;28;20365;-92
2024/03/27 09:53:06;;;;;;;10.93;1.30;;;8.70;99.90;;;;;;4964876;28;20051;-90
2024/03/27 09:55:33;;;;;;;8.00;1.40;;;8.70;99.90;;;;;;4958506;28;20023;-91
2024/03/27 09:58:03;;;;;;;10.02;1.98;;;8.70;99.90;;;;;;4959220;28;20023;-92
2024/03/27 10:00:29;;;;;;;5.73;0.70;;;8.70;99.90;;;;;;4963679;28;20031;-92
2024/03/27 10:02:58;;;;;;;11.93;1.00;;;8.70;99.90;;;;;;4969707;28;20298;-91
2024/03/27 10:05:26;;;;;;;9.82;1.30;;;8.70;99.90;;;;;;4968448;28;20055;-93
2024/03/27 10:07:52;;;;;;;7.10;1.35;;;8.70;99.90;;;;;;4966863;28;20512;-93
2024/03/27 10:10:19;;;;;;;5.38;0.82;;;8.70;99.90;;;;;;4949148;28;20051;-91
2024/03/27 10:12:45;;;;;;;6.28;1.13;;;8.70;99.90;;;;;;4979031;28;20081;-94
2024/03/27 10:15:11;;;;;;;5.55;1.42;;;8.80;99.90;;;;;;4979789;28;20068;-92
2024/03/27 10:17:38;;;;;;;25.15;1.63;;;8.80;99.90;;;;;;4990707;28;20046;-93
2024/03/27 10:20:05;;;;;;;4.25;0.80;;;8.80;99.90;;;;;;4974390;28;20022;-92
2024/03/27 10:22:32;;;;;;;5.95;0.80;;;8.80;99.90;;;;;;4969997;28;20053;-93
2024/03/27 10:24:58;;;;;;;6.78;1.20;;;8.80;99.90;;;;;;4975997;28;20038;-95
2024/03/27 10:27:23;;;;;;;9.70;1.40;;;8.70;99.90;;;;;;4974945;28;20059;-92
2024/03/27 10:29:49;;;;;;;9.82;0.93;;;8.80;99.90;;;;;;4961714;28;20035;-92
2024/03/27 10:32:15;;;;;;;11.98;2.20;;;8.80;99.90;;;;;;4979312;28;20027;-92
2024/03/27 10:34:42;;;;;;;4.57;0.85;;;8.80;99.90;;;;;;4966348;28;20544;-92
2024/03/27 10:37:11;;;;;;;5.15;1.00;;;8.80;99.90;;;;;;4964316;28;20045;-92
2024/03/27 10:39:45;;;;;;;3.65;0.90;;;8.70;99.90;;;;;;4967187;28;20046;-92
2024/03/27 10:42:35;;;;;;;11.38;1.20;;;8.80;99.90;;;;;;4969893;28;20527;-90
2024/03/27 10:45:01;;;;;;;4.50;1.40;;;8.80;99.90;;;;;;4989848;28;20049;-90
2024/03/27 10:47:32;;;;;;;10.30;1.08;;;8.80;99.90;;;;;;4972839;28;20274;-92
2024/03/27 10:49:58;;;;;;;;;;;8.80;99.90;;;;;;4985616;28;20042;-92
2024/03/27 10:52:24;;;;;;;4.43;1.05;;;8.90;99.90;;;;;;4963156;28;19922;-91
2024/03/27 10:54:51;;;;;;;5.63;1.27;;;8.90;99.90;;;;;;4960832;28;20555;-92
2024/03/27 10:57:19;;;;;;;12.20;1.48;;;8.90;99.90;;;;;;4993556;28;20501;-90
2024/03/27 10:59:48;;;;;;;10.80;2.35;;;8.90;99.90;;;;;;4959431;28;20035;-91
2024/03/27 11:02:14;;;;;;;6.50;0.93;;;9.00;99.90;;;;;;4960555;28;20031;-90
2024/03/27 11:04:43;;;;;;;6.78;1.45;;;9.00;99.90;;;;;;4960419;28;20058;-92
2024/03/27 11:07:15;;;;;;;6.20;0.95;;;9.00;99.90;;;;;;4964812;28;20026;-91
2024/03/27 11:09:52;;;;;;;10.15;1.10;;;9.00;99.90;;;;;;4968893;28;20094;-93
2024/03/27 11:12:19;;;;;;;5.68;0.88;;;9.00;99.90;;;;;;4978871;28;20082;-91
2024/03/27 11:14:48;;;;;;;7.22;1.70;;;8.90;99.90;;;;;;4977166;28;20034;-91
2024/03/27 11:17:16;;;;;;;7.63;0.93;;;8.90;99.90;;;;;;4976978;28;20203;-92
2024/03/27 11:19:42;;;;;;;6.35;1.25;;;8.90;99.90;;;;;;4979443;28;20149;-92
2024/03/27 11:22:12;;;;;;;8.23;1.05;;;8.90;99.90;;;;;;4980458;28;20488;-92
2024/03/27 11:24:38;;;;;;;7.23;1.17;;;9.00;99.90;;;;;;4981253;28;20045;-90
2024/03/27 11:27:04;;;;;;;7.40;1.00;;;9.20;99.90;;;;;;4979297;28;20022;-93
2024/03/27 11:29:31;;;;;;;3.70;0.90;;;9.30;99.90;;;;;;4978805;28;20133;-91
2024/03/27 11:32:00;;;;;;;3.58;0.52;;;9.30;99.90;;;;;;4979232;28;20040;-91
2024/03/27 11:34:26;;;;;;;5.80;0.70;;;9.20;99.90;;;;;;4978303;28;20399;-92
2024/03/27 11:36:55;;;;;;;3.20;1.02;;;9.20;99.90;;;;;;4979024;28;20033;-91
2024/03/27 11:39:23;;;;;;;4.00;1.13;;;9.10;99.90;;;;;;4978797;28;20069;-90
2024/03/27 11:41:48;;;;;;;4.32;0.95;;;9.10;99.90;;;;;;4978681;28;20062;-90
2024/03/27 11:44:15;;;;;;;7.20;1.17;;;9.00;99.90;;;;;;4963575;28;20038;-91
2024/03/27 11:46:41;;;;;;;4.18;0.88;;;9.00;99.90;;;;;;4979529;28;20022;-91
2024/03/27 11:49:07;;;;;;;5.35;0.85;;;9.00;99.90;;;;;;4979939;28;20034;-90
2024/03/27 11:51:33;;;;;;;7.65;1.08;;;9.00;99.90;;;;;;4969737;28;20070;-91
2024/03/27 11:53:59;;;;;;;8.02;1.17;;;9.00;99.90;;;;;;4977105;28;20504;-91
2024/03/27 11:56:35;;;;;;;3.83;1.50;;;9.00;99.90;;;;;;4960636;28;20396;-92
2024/03/27 11:59:03;;;;;;;5.05;1.00;;;8.90;99.90;;;;;;4959785;28;20049;-91
2024/03/27 12:01:32;;;;;;;3.08;1.20;;;8.80;99.90;;;;;;4960467;28;20046;-94
2024/03/27 12:03:58;;;;;;;3.90;0.80;;;8.70;99.90;;;;;;4971901;28;20053;-89
2024/03/27 12:06:25;;;;;;;5.22;0.73;;;8.60;99.90;;;;;;4966730;28;20046;-89
2024/03/27 12:08:53;;;;;;;4.15;1.58;;;8.40;99.90;;;;;;4961472;28;20027;-90
2024/03/27 12:11:22;;;;;;;3.33;0.60;;;8.30;99.90;;;;;;4963533;28;20183;-89
2024/03/27 12:13:50;;;;;;;1.92;0.47;;;8.10;99.90;;;;;;4960324;28;20109;-90
2024/03/27 12:16:16;;;;;;;0.40;0.40;;;8.10;99.90;;;;;;4966818;28;20033;-91
2024/03/27 12:18:44;;;;;;;3.20;0.45;;;8.00;99.90;;;;;;4981035;28;20030;-91
2024/03/27 12:21:13;;;;;;;1.60;0.30;;;7.90;99.90;;;;;;4989617;28;20029;-90
2024/03/27 12:23:41;;;;;;;0.70;0.20;;;7.80;99.90;;;;;;4976926;28;20042;-91
2024/03/27 12:26:14;;;;;;;0.45;0.10;;;7.70;99.90;;;;;;4991321;28;20027;-89
2024/03/27 12:28:44;;;;;;;1.73;0.22;;;7.60;99.90;;;;;;5005641;28;20038;-89
2024/03/27 12:31:10;;;;;;;0.47;0.30;;;7.50;99.90;;;;;;4968880;28;20022;-92
2024/03/27 12:33:36;;;;;;;0.32;0.20;;;7.40;99.90;;;;;;4966941;28;20055;-91
2024/03/27 12:36:03;;;;;;;1.40;1.30;;;7.40;99.90;;;;;;4969412;28;20023;-91
2024/03/27 12:38:29;;;;;;;0.95;0.40;;;7.40;99.90;;;;;;4966275;28;20519;-92
2024/03/27 12:40:54;;;;;;;2.13;1.20;;;7.40;99.90;;;;;;4988813;28;20027;-92
2024/03/27 12:43:20;;;;;;;7.65;3.60;;;7.30;99.90;;;;;;4989473;28;20484;-91
2024/03/27 12:45:53;;;;;;;3.25;2.50;;;7.40;99.90;;;;;;4975653;28;20031;-92
2024/03/27 12:48:23;;;;;;;1.38;1.00;;;7.40;99.90;;;;;;4975863;28;20023;-93
2024/03/27 12:50:50;;;;;;;0.30;0.20;;;7.40;99.90;;;;;;4971256;28;20018;-92